createdAt,value
2022-12-18T00:01:18.338Z,33.50
2022-12-18T00:03:46.060Z,34.75
2022-12-18T00:06:15.529Z,31.63
2022-12-18T00:08:43.000Z,34.72
2022-12-18T00:11:12.386Z,32.40
2022-12-18T00:13:40.082Z,33.42
2022-12-18T00:16:09.139Z,34.25
2022-12-18T00:18:36.134Z,33.08
2022-12-18T00:21:04.978Z,33.15
2022-12-18T00:23:32.041Z,32.42
2022-12-18T00:26:01.182Z,30.15
2022-12-18T00:28:27.899Z,31.10
2022-12-18T00:31:08.229Z,32.50
2022-12-18T00:33:35.639Z,29.80
2022-12-18T00:36:08.525Z,29.63
2022-12-18T00:38:35.114Z,29.58
2022-12-18T00:41:01.862Z,34.88
2022-12-18T00:43:28.513Z,34.35
2022-12-18T00:45:55.362Z,31.75
2022-12-18T00:48:22.388Z,32.92
2022-12-18T00:50:50.331Z,34.22
2022-12-18T00:53:17.417Z,33.90
2022-12-18T00:55:44.144Z,32.58
2022-12-18T00:58:11.582Z,33.88
2022-12-18T01:00:39.054Z,35.05
2022-12-18T01:03:06.315Z,32.22
2022-12-18T01:05:33.419Z,33.08
2022-12-18T01:08:00.299Z,32.38
2022-12-18T01:10:26.927Z,31.45
2022-12-18T01:12:57.508Z,31.70
2022-12-18T01:15:24.067Z,32.50
2022-12-18T01:17:53.481Z,32.38
2022-12-18T01:20:20.440Z,33.15
2022-12-18T01:22:47.376Z,34.72
2022-12-18T01:25:13.923Z,35.97
2022-12-18T01:27:40.523Z,32.63
2022-12-18T01:30:07.784Z,34.67
2022-12-18T01:32:34.586Z,32.55
2022-12-18T01:35:02.522Z,30.83
2022-12-18T01:37:29.093Z,33.92
2022-12-18T01:39:56.503Z,32.20
2022-12-18T01:42:23.117Z,33.00
2022-12-18T01:45:25.977Z,33.70
2022-12-18T01:47:58.414Z,33.05
2022-12-18T01:50:30.204Z,32.78
2022-12-18T01:53:00.374Z,33.53
2022-12-18T01:55:29.637Z,34.97
2022-12-18T01:57:58.885Z,32.83
2022-12-18T02:00:27.200Z,32.45
2022-12-18T02:02:54.323Z,34.28
2022-12-18T02:05:30.901Z,35.47
2022-12-18T02:08:11.368Z,33.33
2022-12-18T02:10:59.133Z,33.60
2022-12-18T02:13:25.627Z,37.47
2022-12-18T02:16:19.212Z,32.42
2022-12-18T02:18:50.018Z,32.33
2022-12-18T02:21:45.509Z,32.70
2022-12-18T02:24:41.864Z,33.80
2022-12-18T02:27:10.267Z,32.03
2022-12-18T02:29:57.620Z,30.30
2022-12-18T02:32:31.225Z,30.50
2022-12-18T02:34:58.390Z,32.07
2022-12-18T02:37:27.811Z,32.03
2022-12-18T02:39:56.480Z,33.53
2022-12-18T02:42:24.016Z,32.10
2022-12-18T02:44:52.195Z,33.05
2022-12-18T02:47:27.776Z,32.42
2022-12-18T02:49:58.826Z,31.08
2022-12-18T02:55:40.646Z,31.05
2022-12-18T02:58:17.160Z,30.42
2022-12-18T03:00:53.863Z,29.23
2022-12-18T03:03:31.138Z,30.80
2022-12-18T03:06:03.156Z,29.33
2022-12-18T03:08:33.205Z,30.15
2022-12-18T03:11:38.698Z,29.30
2022-12-18T03:14:08.028Z,27.92
2022-12-18T03:16:35.825Z,29.55
2022-12-18T03:19:05.238Z,28.92
2022-12-18T03:21:43.968Z,29.92
2022-12-18T03:24:11.177Z,29.10
2022-12-18T03:26:42.454Z,27.63
2022-12-18T03:29:13.646Z,30.50
2022-12-18T03:31:42.162Z,31.08
2022-12-18T03:34:18.523Z,28.98
2022-12-18T03:36:47.080Z,29.67
2022-12-18T03:39:14.805Z,29.13
2022-12-18T03:41:51.116Z,28.73
2022-12-18T03:44:43.925Z,26.85
2022-12-18T03:47:15.016Z,24.83
2022-12-18T03:49:57.570Z,26.30
2022-12-18T03:52:28.896Z,28.15
2022-12-18T03:54:57.035Z,25.10
2022-12-18T03:57:26.750Z,25.70
2022-12-18T04:00:01.929Z,26.60
2022-12-18T04:02:52.021Z,26.83
2022-12-18T04:05:25.560Z,27.45
2022-12-18T04:07:53.139Z,25.60
2022-12-18T04:10:19.745Z,24.75
2022-12-18T04:12:46.881Z,28.20
2022-12-18T04:15:15.280Z,24.40
2022-12-18T04:17:48.535Z,24.25
2022-12-18T04:20:17.286Z,23.63
2022-12-18T04:22:44.950Z,23.17
2022-12-18T04:25:13.698Z,24.30
2022-12-18T04:27:49.890Z,23.55
2022-12-18T04:30:16.526Z,21.58
2022-12-18T04:32:47.741Z,23.35
2022-12-18T04:35:17.539Z,21.10
2022-12-18T04:37:44.769Z,22.70
2022-12-18T04:40:12.181Z,21.40
2022-12-18T04:42:42.636Z,21.40
2022-12-18T04:45:09.755Z,21.88
2022-12-18T04:47:36.328Z,21.13
2022-12-18T04:50:03.460Z,21.95
2022-12-18T04:52:33.381Z,22.85
2022-12-18T04:54:59.926Z,21.05
2022-12-18T04:57:27.052Z,22.27
2022-12-18T04:59:53.579Z,22.25
2022-12-18T05:02:20.371Z,21.25
2022-12-18T05:04:46.970Z,22.85
2022-12-18T05:07:13.499Z,22.75
2022-12-18T05:09:40.045Z,22.80
2022-12-18T05:12:07.745Z,22.13
2022-12-18T05:14:34.264Z,21.92
2022-12-18T05:17:01.352Z,22.38
2022-12-18T05:19:28.040Z,21.95
2022-12-18T05:21:54.596Z,22.65
2022-12-18T05:24:21.137Z,20.90
2022-12-18T05:26:47.658Z,19.98
2022-12-18T05:29:14.221Z,19.65
2022-12-18T05:31:41.123Z,18.98
2022-12-18T05:34:09.522Z,20.08
2022-12-18T05:36:37.200Z,19.35
2022-12-18T05:39:04.060Z,20.67
2022-12-18T05:41:31.042Z,20.95
2022-12-18T05:43:57.638Z,19.15
2022-12-18T05:46:25.240Z,20.10
2022-12-18T05:48:52.150Z,20.55
2022-12-18T05:51:20.901Z,19.70
2022-12-18T05:53:47.926Z,18.90
2022-12-18T05:56:16.837Z,19.00
2022-12-18T05:58:43.824Z,18.58
2022-12-18T06:01:14.298Z,19.30
2022-12-18T06:03:41.527Z,17.75
2022-12-18T06:06:23.389Z,18.98
2022-12-18T06:08:51.126Z,18.63
2022-12-18T06:11:23.155Z,19.33
2022-12-18T06:13:58.199Z,19.08
2022-12-18T06:16:25.980Z,17.75
2022-12-18T06:18:52.547Z,17.98
2022-12-18T06:21:19.429Z,17.63
2022-12-18T06:23:45.975Z,17.85
2022-12-18T06:26:13.171Z,18.15
2022-12-18T06:28:39.785Z,18.92
2022-12-18T06:31:07.167Z,18.30
2022-12-18T06:33:33.821Z,17.42
2022-12-18T06:36:12.013Z,18.98
2022-12-18T06:38:42.780Z,17.38
2022-12-18T06:41:11.639Z,17.30
2022-12-18T06:43:38.743Z,17.02
2022-12-18T06:46:06.207Z,16.23
2022-12-18T06:48:33.393Z,17.15
2022-12-18T06:51:00.430Z,18.77
2022-12-18T06:53:26.994Z,17.30
2022-12-18T06:55:53.647Z,17.63
2022-12-18T06:58:20.258Z,17.40
2022-12-18T07:00:46.881Z,16.60
2022-12-18T07:03:13.931Z,18.02
2022-12-18T07:05:41.769Z,16.55
2022-12-18T07:08:08.322Z,16.08
2022-12-18T07:10:46.117Z,17.52
2022-12-18T07:13:14.123Z,17.02
2022-12-18T07:15:41.154Z,16.73
2022-12-18T07:18:07.741Z,15.88
2022-12-18T07:20:34.303Z,17.88
2022-12-18T07:23:03.691Z,16.55
2022-12-18T07:25:30.451Z,16.00
2022-12-18T07:27:56.960Z,16.17
2022-12-18T07:30:23.510Z,17.30
2022-12-18T07:32:50.221Z,17.70
2022-12-18T07:35:19.490Z,16.00
2022-12-18T07:37:49.973Z,16.10
2022-12-18T07:40:16.558Z,16.45
2022-12-18T07:42:43.086Z,14.68
2022-12-18T07:45:10.093Z,16.67
2022-12-18T07:47:37.278Z,14.85
2022-12-18T07:50:05.602Z,15.23
2022-12-18T07:52:32.200Z,16.20
2022-12-18T07:54:59.778Z,16.52
2022-12-18T07:57:50.049Z,14.63
2022-12-18T08:00:13.449Z,15.30
2022-12-18T08:02:40.118Z,14.23
2022-12-18T08:05:07.087Z,15.02
2022-12-18T08:07:33.763Z,14.73
2022-12-18T08:10:00.316Z,14.10
2022-12-18T08:12:26.886Z,13.98
2022-12-18T08:14:53.409Z,14.90
2022-12-18T08:17:20.716Z,14.35
2022-12-18T08:19:47.271Z,13.98
2022-12-18T08:22:13.830Z,13.73
2022-12-18T08:24:40.363Z,14.63
2022-12-18T08:27:28.315Z,13.98
2022-12-18T08:29:53.682Z,12.90
2022-12-18T08:32:20.319Z,13.05
2022-12-18T08:34:46.921Z,13.30
2022-12-18T08:37:13.457Z,12.40
2022-12-18T08:39:40.030Z,12.45
2022-12-18T08:42:25.276Z,13.68
2022-12-18T08:44:51.832Z,12.48
2022-12-18T08:47:18.414Z,12.07
2022-12-18T08:49:44.968Z,12.50
2022-12-18T08:52:12.023Z,12.82
2022-12-18T08:54:41.281Z,12.77
2022-12-18T08:57:07.830Z,12.30
2022-12-18T08:59:34.390Z,11.65
2022-12-18T09:02:01.214Z,12.40
2022-12-18T09:04:27.985Z,11.52
2022-12-18T09:06:57.468Z,14.02
2022-12-18T09:09:24.017Z,11.52
2022-12-18T09:11:50.529Z,11.80
2022-12-18T09:14:17.058Z,12.07
2022-12-18T09:16:43.771Z,11.65
2022-12-18T09:19:10.692Z,10.80
2022-12-18T09:21:44.816Z,10.63
2022-12-18T09:24:14.999Z,11.90
2022-12-18T09:26:41.616Z,9.82
2022-12-18T09:29:11.542Z,9.85
2022-12-18T09:31:39.329Z,10.38
2022-12-18T09:34:05.942Z,10.95
2022-12-18T09:36:32.516Z,9.98
2022-12-18T09:39:03.769Z,10.20
2022-12-18T09:41:46.832Z,7.97
2022-12-18T09:44:24.000Z,9.73
2022-12-18T09:47:17.091Z,9.50
2022-12-18T09:49:46.564Z,8.75
2022-12-18T09:52:16.518Z,8.60
2022-12-18T09:54:44.614Z,9.23
2022-12-18T09:57:16.527Z,8.20
2022-12-18T09:59:45.254Z,8.98
2022-12-18T10:02:15.232Z,9.05
2022-12-18T10:04:41.951Z,8.77
2022-12-18T10:07:25.177Z,8.02
2022-12-18T10:10:06.126Z,7.95
2022-12-18T10:12:45.991Z,8.18
2022-12-18T10:15:25.661Z,7.20
2022-12-18T10:18:18.783Z,7.65
2022-12-18T10:20:58.726Z,8.00
2022-12-18T10:23:35.193Z,7.53
2022-12-18T10:26:10.772Z,6.72
2022-12-18T10:28:40.226Z,7.15
2022-12-18T10:31:33.424Z,6.93
2022-12-18T10:34:00.034Z,7.80
2022-12-18T10:36:26.552Z,7.30
2022-12-18T10:38:53.120Z,7.47
2022-12-18T10:41:20.022Z,6.78
2022-12-18T10:43:48.988Z,6.60
2022-12-18T10:46:18.402Z,6.47
2022-12-18T10:48:48.050Z,6.30
2022-12-18T10:51:40.938Z,6.03
2022-12-18T10:54:15.610Z,5.97
2022-12-18T10:56:42.792Z,5.63
2022-12-18T10:59:13.342Z,5.95
2022-12-18T11:01:57.602Z,6.18
2022-12-18T11:04:26.727Z,5.97
2022-12-18T11:07:11.998Z,5.85
2022-12-18T11:09:41.559Z,5.05
2022-12-18T11:12:18.541Z,4.95
2022-12-18T11:14:56.969Z,5.05
2022-12-18T11:17:30.465Z,4.68
2022-12-18T11:19:59.175Z,4.88
2022-12-18T11:22:27.552Z,4.93
2022-12-18T11:25:30.836Z,5.25
2022-12-18T11:27:59.035Z,4.85
2022-12-18T11:30:34.665Z,5.20
2022-12-18T11:33:06.051Z,4.72
2022-12-18T11:35:51.739Z,4.82
2022-12-18T11:38:24.966Z,5.28
2022-12-18T11:40:57.454Z,4.32
2022-12-18T11:43:56.886Z,4.90
2022-12-18T11:46:34.817Z,5.10
2022-12-18T11:49:14.385Z,5.40
2022-12-18T11:52:04.468Z,4.88
2022-12-18T11:54:31.016Z,5.38
2022-12-18T11:57:05.846Z,5.20
2022-12-18T11:59:49.354Z,5.43
2022-12-18T12:02:43.976Z,4.93
2022-12-18T12:05:22.796Z,6.00
2022-12-18T12:08:18.316Z,5.80
2022-12-18T12:11:03.233Z,4.60
2022-12-18T12:13:44.618Z,5.72
2022-12-18T12:16:47.956Z,5.75
2022-12-18T12:19:33.591Z,5.07
2022-12-18T12:22:10.751Z,5.53
2022-12-18T12:24:55.418Z,6.05
2022-12-18T12:27:37.427Z,5.13
2022-12-18T12:30:22.509Z,6.15
2022-12-18T12:33:02.638Z,5.18
2022-12-18T12:35:59.838Z,5.03
2022-12-18T12:38:32.905Z,5.50
2022-12-18T12:41:27.836Z,5.32
2022-12-18T12:43:57.365Z,5.35
2022-12-18T12:46:25.046Z,5.78
2022-12-18T12:48:58.055Z,5.78
2022-12-18T12:51:27.592Z,5.80
2022-12-18T12:53:55.991Z,4.80
2022-12-18T12:56:23.317Z,6.10
2022-12-18T12:59:19.314Z,5.38
2022-12-18T13:01:53.390Z,5.40
2022-12-18T13:04:43.579Z,5.53
2022-12-18T13:07:15.407Z,5.30
2022-12-18T13:10:13.202Z,5.53
2022-12-18T13:12:58.757Z,5.72
2022-12-18T13:15:44.772Z,6.32
2022-12-18T13:18:21.701Z,5.90
2022-12-18T13:21:03.936Z,5.95
2022-12-18T13:23:37.584Z,5.18
2022-12-18T13:28:33.577Z,5.97
2022-12-18T13:31:04.064Z,6.47
2022-12-18T13:33:30.563Z,5.40
2022-12-18T13:36:15.892Z,5.57
2022-12-18T13:38:44.479Z,5.63
2022-12-18T13:41:24.499Z,6.05
2022-12-18T13:44:12.857Z,5.80
2022-12-18T13:46:49.320Z,6.45
2022-12-18T13:49:41.333Z,6.90
2022-12-18T13:52:17.849Z,6.35
2022-12-18T13:54:48.526Z,6.30
2022-12-18T13:57:41.817Z,6.80
2022-12-18T14:00:29.412Z,6.35
2022-12-18T14:02:57.303Z,6.88
2022-12-18T14:05:27.051Z,6.63
2022-12-18T14:07:54.612Z,6.63
2022-12-18T14:13:10.944Z,6.03
2022-12-18T14:15:44.482Z,7.65
2022-12-18T14:18:26.541Z,7.50
2022-12-18T14:20:56.182Z,9.65
2022-12-18T14:23:38.936Z,7.68
2022-12-18T14:26:30.206Z,8.03
2022-12-18T14:28:59.514Z,7.20
2022-12-18T14:31:28.043Z,6.68
2022-12-18T14:33:54.679Z,6.68
2022-12-18T14:36:24.143Z,7.13
2022-12-18T14:38:54.167Z,6.97
2022-12-18T14:41:21.870Z,6.93
2022-12-18T14:43:50.525Z,7.07
2022-12-18T14:46:36.703Z,7.32
2022-12-18T14:49:22.094Z,8.30
2022-12-18T14:51:54.117Z,7.82
2022-12-18T14:54:21.332Z,7.65
2022-12-18T14:56:55.429Z,7.43
2022-12-18T14:59:26.521Z,7.40
2022-12-18T15:02:16.336Z,8.57
2022-12-18T15:04:44.938Z,8.02
2022-12-18T15:07:11.580Z,8.82
2022-12-18T15:09:39.578Z,8.35
2022-12-18T15:12:06.545Z,7.97
2022-12-18T15:14:42.714Z,7.95
2022-12-18T15:17:19.988Z,7.80
2022-12-18T15:19:47.416Z,8.52
2022-12-18T15:22:36.083Z,8.48
2022-12-18T15:25:04.861Z,8.63
2022-12-18T15:27:36.822Z,8.27
2022-12-18T15:30:09.352Z,8.30
2022-12-18T15:32:37.453Z,8.80
2022-12-18T15:35:14.772Z,9.57
2022-12-18T15:37:41.755Z,8.73
2022-12-18T15:40:13.605Z,8.88
2022-12-18T15:42:58.705Z,9.02
2022-12-18T15:45:25.269Z,8.98
2022-12-18T15:47:51.835Z,8.95
2022-12-18T15:50:18.353Z,9.48
2022-12-18T15:52:50.710Z,10.25
2022-12-18T15:55:38.326Z,9.95
2022-12-18T15:58:07.322Z,8.73
2022-12-18T16:00:35.183Z,9.23
2022-12-18T16:03:02.155Z,9.65
2022-12-18T16:05:29.577Z,9.38
2022-12-18T16:07:56.333Z,9.63
2022-12-18T16:10:23.170Z,9.63
2022-12-18T16:12:49.682Z,9.60
2022-12-18T16:15:22.477Z,9.20
2022-12-18T16:17:51.056Z,10.48
2022-12-18T16:20:23.086Z,9.30
2022-12-18T16:22:50.312Z,9.48
2022-12-18T16:25:24.165Z,9.15
2022-12-18T16:30:22.909Z,9.07
2022-12-18T16:32:49.582Z,9.68
2022-12-18T16:35:17.104Z,9.70
2022-12-18T16:37:44.352Z,9.27
2022-12-18T16:40:13.665Z,8.60
2022-12-18T16:42:41.251Z,10.10
2022-12-18T16:45:10.007Z,10.13
2022-12-18T16:47:36.653Z,9.50
2022-12-18T16:50:04.282Z,9.68
2022-12-18T16:52:30.912Z,9.80
2022-12-18T16:54:57.467Z,9.98
2022-12-18T16:57:25.541Z,9.52
2022-12-18T16:59:52.732Z,9.07
2022-12-18T17:02:25.411Z,9.73
2022-12-18T17:05:00.934Z,9.47
2022-12-18T17:07:28.717Z,9.18
2022-12-18T17:09:55.667Z,9.88
2022-12-18T17:12:22.999Z,9.27
2022-12-18T17:14:49.592Z,10.93
2022-12-18T17:17:21.251Z,11.60
2022-12-18T17:19:48.792Z,10.65
2022-12-18T17:22:15.369Z,10.32
2022-12-18T17:24:42.032Z,9.07
2022-12-18T17:27:08.915Z,8.90
2022-12-18T17:29:35.775Z,8.85
2022-12-18T17:32:02.402Z,8.82
2022-12-18T17:34:29.978Z,9.63
2022-12-18T17:36:57.260Z,8.60
2022-12-18T17:39:23.772Z,9.00
2022-12-18T17:41:50.417Z,9.23
2022-12-18T17:44:17.870Z,9.07
2022-12-18T17:46:46.123Z,9.57
2022-12-18T17:49:14.036Z,10.20
2022-12-18T17:51:42.840Z,8.82
2022-12-18T17:54:10.465Z,8.27
2022-12-18T17:56:37.040Z,8.27
2022-12-18T17:59:04.249Z,9.95
2022-12-18T18:01:30.920Z,8.57
2022-12-18T18:03:57.634Z,8.30
2022-12-18T18:06:24.355Z,8.57
2022-12-18T18:08:51.800Z,8.30
2022-12-18T18:11:55.852Z,9.02
2022-12-18T18:14:22.970Z,8.85
2022-12-18T18:16:51.118Z,8.77
2022-12-18T18:19:20.434Z,8.65
2022-12-18T18:21:48.719Z,8.57
2022-12-18T18:24:18.434Z,8.95
2022-12-18T18:26:46.689Z,8.60
2022-12-18T18:29:15.585Z,8.48
2022-12-18T18:31:42.428Z,9.65
2022-12-18T18:34:17.890Z,8.95
2022-12-18T18:36:49.020Z,9.07
2022-12-18T18:39:15.716Z,8.18
2022-12-18T18:41:43.858Z,8.70
2022-12-18T18:44:16.125Z,9.77
2022-12-18T18:46:42.695Z,10.32
2022-12-18T18:49:09.637Z,9.25
2022-12-18T18:51:36.217Z,8.75
2022-12-18T18:54:02.923Z,10.73
2022-12-18T18:59:16.656Z,9.98
2022-12-18T19:01:43.930Z,9.85
2022-12-18T19:04:10.787Z,8.98
2022-12-18T19:06:37.389Z,8.60
2022-12-18T19:09:06.518Z,9.80
2022-12-18T19:11:51.751Z,9.45
2022-12-18T19:14:18.690Z,9.18
2022-12-18T19:16:45.535Z,9.52
2022-12-18T19:19:13.365Z,9.63
2022-12-18T19:21:40.815Z,8.98
2022-12-18T19:24:07.727Z,9.70
2022-12-18T19:26:35.854Z,10.40
2022-12-18T19:29:08.274Z,10.13
2022-12-18T19:31:36.782Z,10.18
2022-12-18T19:34:07.157Z,8.60
2022-12-18T19:36:35.889Z,10.25
2022-12-18T19:39:02.979Z,8.80
2022-12-18T19:41:31.345Z,9.50
2022-12-18T19:43:59.801Z,9.35
2022-12-18T19:46:26.437Z,9.45
2022-12-18T19:48:53.641Z,9.90
2022-12-18T19:51:25.560Z,10.27
2022-12-18T19:53:58.162Z,9.65
2022-12-18T19:56:26.975Z,9.90
2022-12-18T19:58:54.423Z,9.98
2022-12-18T20:01:23.566Z,10.27
2022-12-18T20:03:53.638Z,10.32
2022-12-18T20:06:31.830Z,11.23
2022-12-18T20:09:01.308Z,10.82
2022-12-18T20:11:31.928Z,10.18
2022-12-18T20:14:01.861Z,11.13
2022-12-18T20:16:28.565Z,11.77
2022-12-18T20:18:56.297Z,11.43
2022-12-18T20:21:23.816Z,11.63
2022-12-18T20:23:50.371Z,11.18
2022-12-18T20:26:16.985Z,11.60
2022-12-18T20:28:43.609Z,11.48
2022-12-18T20:31:13.823Z,12.45
2022-12-18T20:33:41.633Z,11.13
2022-12-18T20:36:12.847Z,12.00
2022-12-18T20:38:39.589Z,12.20
2022-12-18T20:41:11.889Z,11.85
2022-12-18T20:43:39.400Z,12.68
2022-12-18T20:46:08.815Z,12.43
2022-12-18T20:48:35.621Z,12.93
2022-12-18T20:51:05.670Z,13.23
2022-12-18T20:53:33.413Z,13.10
2022-12-18T20:56:00.004Z,12.93
2022-12-18T20:58:26.559Z,13.88
2022-12-18T21:01:10.673Z,13.95
2022-12-18T21:03:39.086Z,13.65
2022-12-18T21:06:05.939Z,13.00
2022-12-18T21:08:32.724Z,13.68
2022-12-18T21:11:35.358Z,14.45
2022-12-18T21:14:10.405Z,15.05
2022-12-18T21:16:37.166Z,14.80
2022-12-18T21:19:03.772Z,14.32
2022-12-18T21:21:30.318Z,14.45
2022-12-18T21:24:01.613Z,14.40
2022-12-18T21:26:28.656Z,14.80
2022-12-18T21:28:57.042Z,15.15
2022-12-18T21:31:25.638Z,15.38
2022-12-18T21:33:53.159Z,15.45
2022-12-18T21:36:25.241Z,16.15
2022-12-18T21:38:55.564Z,15.45
2022-12-18T21:41:42.258Z,15.18
2022-12-18T21:44:11.705Z,15.30
2022-12-18T21:46:41.020Z,15.85
2022-12-18T21:49:08.576Z,16.27
2022-12-18T21:51:36.350Z,16.75
2022-12-18T21:54:03.142Z,16.67
2022-12-18T21:56:51.916Z,16.42
2022-12-18T21:59:38.659Z,17.30
2022-12-18T22:02:10.085Z,16.88
2022-12-18T22:04:36.908Z,16.20
2022-12-18T22:07:05.061Z,17.58
2022-12-18T22:09:32.130Z,17.50
2022-12-18T22:11:59.101Z,18.33
2022-12-18T22:14:25.908Z,17.05
2022-12-18T22:16:52.663Z,16.90
2022-12-18T22:19:20.185Z,17.45
2022-12-18T22:21:48.649Z,17.65
2022-12-18T22:24:23.312Z,18.63
2022-12-18T22:26:52.899Z,18.05
2022-12-18T22:29:42.676Z,18.70
2022-12-18T22:32:16.310Z,19.25
2022-12-18T22:34:46.443Z,19.17
2022-12-18T22:37:12.993Z,18.23
2022-12-18T22:39:40.014Z,19.20
2022-12-18T22:42:07.488Z,19.75
2022-12-18T22:44:34.147Z,18.10
2022-12-18T22:47:06.867Z,18.50
2022-12-18T22:49:34.919Z,19.42
2022-12-18T22:52:03.016Z,20.35
2022-12-18T22:54:29.787Z,19.45
2022-12-18T22:56:56.923Z,20.17
2022-12-18T22:59:24.019Z,20.33
2022-12-18T23:01:57.105Z,20.77
2022-12-18T23:04:29.089Z,20.33
2022-12-18T23:07:02.719Z,20.60
2022-12-18T23:09:29.239Z,21.45
2022-12-18T23:11:55.795Z,21.55
2022-12-18T23:14:22.321Z,19.45
2022-12-18T23:16:49.920Z,19.73
2022-12-18T23:19:18.846Z,19.50
2022-12-18T23:21:45.367Z,20.08
2022-12-18T23:24:11.956Z,19.73
2022-12-18T23:26:38.638Z,20.80
2022-12-18T23:29:05.570Z,20.10
2022-12-18T23:31:37.053Z,19.70
2022-12-18T23:34:04.872Z,19.08
2022-12-18T23:36:31.823Z,19.73
2022-12-18T23:39:05.276Z,20.25
2022-12-18T23:41:32.703Z,20.65
2022-12-18T23:44:00.610Z,20.50
2022-12-18T23:46:33.556Z,20.38
2022-12-18T23:49:02.584Z,19.95
2022-12-18T23:51:29.736Z,20.67
2022-12-18T23:53:58.278Z,19.63
2022-12-18T23:56:25.761Z,21.10
2022-12-18T23:58:52.870Z,20.83
